sensor_id;sensor_type;location;lat;lon;timestamp;temperature;humidity
65864;SHT30;52639;51.180;20.460;2023-12-20T00:00:13;4.83;86.11
65864;SHT30;52639;51.180;20.460;2023-12-20T00:04:38;4.80;85.81
65864;SHT30;52639;51.180;20.460;2023-12-20T00:08:50;4.80;85.80
65864;SHT30;52639;51.180;20.460;2023-12-20T00:13:11;4.80;86.85
65864;SHT30;52639;51.180;20.460;2023-12-20T00:17:41;4.77;86.67
65864;SHT30;52639;51.180;20.460;2023-12-20T00:22:12;4.77;86.38
65864;SHT30;52639;51.180;20.460;2023-12-20T00:26:19;4.74;86.27
65864;SHT30;52639;51.180;20.460;2023-12-20T00:30:22;4.72;86.23
65864;SHT30;52639;51.180;20.460;2023-12-20T00:34:44;4.73;86.54
65864;SHT30;52639;51.180;20.460;2023-12-20T00:39:22;4.69;86.22
65864;SHT30;52639;51.180;20.460;2023-12-20T00:43:27;4.69;86.54
65864;SHT30;52639;51.180;20.460;2023-12-20T00:47:45;4.66;86.77
65864;SHT30;52639;51.180;20.460;2023-12-20T00:51:59;4.67;87.30
65864;SHT30;52639;51.180;20.460;2023-12-20T00:56:02;4.66;87.11
65864;SHT30;52639;51.180;20.460;2023-12-20T01:00:33;4.64;87.10
65864;SHT30;52639;51.180;20.460;2023-12-20T01:04:36;4.66;87.96
65864;SHT30;52639;51.180;20.460;2023-12-20T01:08:39;4.67;87.80
65864;SHT30;52639;51.180;20.460;2023-12-20T01:12:49;4.67;88.08
65864;SHT30;52639;51.180;20.460;2023-12-20T01:17:03;4.67;88.40
65864;SHT30;52639;51.180;20.460;2023-12-20T01:21:17;4.67;88.32
65864;SHT30;52639;51.180;20.460;2023-12-20T01:25:22;4.67;88.69
65864;SHT30;52639;51.180;20.460;2023-12-20T01:29:29;4.63;88.50
65864;SHT30;52639;51.180;20.460;2023-12-20T01:33:45;4.62;87.82
65864;SHT30;52639;51.180;20.460;2023-12-20T01:37:48;4.62;88.27
65864;SHT30;52639;51.180;20.460;2023-12-20T01:46:34;4.63;88.22
65864;SHT30;52639;51.180;20.460;2023-12-20T01:51:06;4.63;88.70
65864;SHT30;52639;51.180;20.460;2023-12-20T01:55:09;4.62;89.06
65864;SHT30;52639;51.180;20.460;2023-12-20T01:59:21;4.63;89.08
65864;SHT30;52639;51.180;20.460;2023-12-20T02:03:32;4.60;89.04
65864;SHT30;52639;51.180;20.460;2023-12-20T02:08:15;4.64;89.23
65864;SHT30;52639;51.180;20.460;2023-12-20T02:12:23;4.63;88.98
65864;SHT30;52639;51.180;20.460;2023-12-20T02:16:29;4.60;89.79
65864;SHT30;52639;51.180;20.460;2023-12-20T02:20:40;4.64;90.13
65864;SHT30;52639;51.180;20.460;2023-12-20T02:25:06;4.66;90.01
65864;SHT30;52639;51.180;20.460;2023-12-20T02:34:24;4.69;89.77
65864;SHT30;52639;51.180;20.460;2023-12-20T02:38:36;4.69;90.14
65864;SHT30;52639;51.180;20.460;2023-12-20T02:42:43;4.69;90.13
65864;SHT30;52639;51.180;20.460;2023-12-20T02:47:01;4.69;90.16
65864;SHT30;52639;51.180;20.460;2023-12-20T02:51:08;4.70;91.05
65864;SHT30;52639;51.180;20.460;2023-12-20T02:59:46;4.73;91.41
65864;SHT30;52639;51.180;20.460;2023-12-20T03:03:56;4.70;90.76
65864;SHT30;52639;51.180;20.460;2023-12-20T03:08:29;4.72;90.53
65864;SHT30;52639;51.180;20.460;2023-12-20T03:12:56;4.74;90.58
65864;SHT30;52639;51.180;20.460;2023-12-20T03:17:03;4.73;90.71
65864;SHT30;52639;51.180;20.460;2023-12-20T03:21:08;4.76;91.13
65864;SHT30;52639;51.180;20.460;2023-12-20T03:25:14;4.76;91.88
65864;SHT30;52639;51.180;20.460;2023-12-20T03:29:31;4.74;90.97
65864;SHT30;52639;51.180;20.460;2023-12-20T03:33:37;4.77;92.17
65864;SHT30;52639;51.180;20.460;2023-12-20T03:37:50;4.74;91.13
65864;SHT30;52639;51.180;20.460;2023-12-20T03:41:55;4.74;91.31
65864;SHT30;52639;51.180;20.460;2023-12-20T03:46:15;4.76;90.97
65864;SHT30;52639;51.180;20.460;2023-12-20T03:50:20;4.79;90.87
65864;SHT30;52639;51.180;20.460;2023-12-20T03:54:24;4.79;90.71
65864;SHT30;52639;51.180;20.460;2023-12-20T03:58:30;4.79;90.53
65864;SHT30;52639;51.180;20.460;2023-12-20T04:03:03;4.81;90.49
65864;SHT30;52639;51.180;20.460;2023-12-20T04:07:34;4.80;90.66
65864;SHT30;52639;51.180;20.460;2023-12-20T04:11:39;4.81;90.70
65864;SHT30;52639;51.180;20.460;2023-12-20T04:15:47;4.81;91.16
65864;SHT30;52639;51.180;20.460;2023-12-20T04:20:01;4.81;90.72
65864;SHT30;52639;51.180;20.460;2023-12-20T04:24:21;4.83;90.67
65864;SHT30;52639;51.180;20.460;2023-12-20T04:28:28;4.84;91.85
65864;SHT30;52639;51.180;20.460;2023-12-20T04:32:47;4.83;91.14
65864;SHT30;52639;51.180;20.460;2023-12-20T04:36:51;4.81;91.68
65864;SHT30;52639;51.180;20.460;2023-12-20T04:41:19;4.81;92.13
65864;SHT30;52639;51.180;20.460;2023-12-20T04:46:04;4.79;91.94
65864;SHT30;52639;51.180;20.460;2023-12-20T04:50:30;4.80;92.77
65864;SHT30;52639;51.180;20.460;2023-12-20T04:54:51;4.76;92.01
65864;SHT30;52639;51.180;20.460;2023-12-20T04:59:25;4.76;92.16
65864;SHT30;52639;51.180;20.460;2023-12-20T05:03:48;4.74;92.32
65864;SHT30;52639;51.180;20.460;2023-12-20T05:07:56;4.72;92.18
65864;SHT30;52639;51.180;20.460;2023-12-20T05:12:58;4.69;91.96
65864;SHT30;52639;51.180;20.460;2023-12-20T05:17:18;4.66;92.07
65864;SHT30;52639;51.180;20.460;2023-12-20T05:21:40;4.66;91.89
65864;SHT30;52639;51.180;20.460;2023-12-20T05:26:15;4.69;91.79
65864;SHT30;52639;51.180;20.460;2023-12-20T05:30:23;4.66;91.74
65864;SHT30;52639;51.180;20.460;2023-12-20T05:34:53;4.64;91.58
65864;SHT30;52639;51.180;20.460;2023-12-20T05:39:22;4.62;91.89
65864;SHT30;52639;51.180;20.460;2023-12-20T05:43:25;4.60;92.07
65864;SHT30;52639;51.180;20.460;2023-12-20T05:47:55;4.63;92.21
65864;SHT30;52639;51.180;20.460;2023-12-20T05:52:39;4.60;92.07
65864;SHT30;52639;51.180;20.460;2023-12-20T05:56:49;4.60;92.12
65864;SHT30;52639;51.180;20.460;2023-12-20T06:01:16;4.59;92.32
65864;SHT30;52639;51.180;20.460;2023-12-20T06:05:19;4.56;92.54
65864;SHT30;52639;51.180;20.460;2023-12-20T06:09:48;4.53;92.19
65864;SHT30;52639;51.180;20.460;2023-12-20T06:18:15;4.53;91.98
65864;SHT30;52639;51.180;20.460;2023-12-20T06:22:18;4.54;92.19
65864;SHT30;52639;51.180;20.460;2023-12-20T06:32:18;4.57;92.57
65864;SHT30;52639;51.180;20.460;2023-12-20T06:37:17;4.53;92.88
65864;SHT30;52639;51.180;20.460;2023-12-20T06:41:45;4.50;92.67
65864;SHT30;52639;51.180;20.460;2023-12-20T06:45:58;4.50;93.00
65864;SHT30;52639;51.180;20.460;2023-12-20T06:55:40;4.49;93.06
65864;SHT30;52639;51.180;20.460;2023-12-20T07:10:32;4.45;93.38
65864;SHT30;52639;51.180;20.460;2023-12-20T07:15:23;4.46;93.37
65864;SHT30;52639;51.180;20.460;2023-12-20T07:20:11;4.48;93.09
65864;SHT30;52639;51.180;20.460;2023-12-20T07:24:45;4.52;93.18
65864;SHT30;52639;51.180;20.460;2023-12-20T07:29:07;4.52;93.60
65864;SHT30;52639;51.180;20.460;2023-12-20T07:38:41;4.59;93.03
65864;SHT30;52639;51.180;20.460;2023-12-20T07:43:19;4.62;93.40
65864;SHT30;52639;51.180;20.460;2023-12-20T07:48:17;4.62;92.93
65864;SHT30;52639;51.180;20.460;2023-12-20T07:56:51;4.56;93.16
65864;SHT30;52639;51.180;20.460;2023-12-20T08:12:11;4.50;93.20
65864;SHT30;52639;51.180;20.460;2023-12-20T08:17:34;4.48;93.64
65864;SHT30;52639;51.180;20.460;2023-12-20T08:23:01;4.43;94.08
65864;SHT30;52639;51.180;20.460;2023-12-20T08:27:53;4.43;93.71
65864;SHT30;52639;51.180;20.460;2023-12-20T08:32:34;4.45;93.50
65864;SHT30;52639;51.180;20.460;2023-12-20T08:36:45;4.46;93.32
65864;SHT30;52639;51.180;20.460;2023-12-20T08:41:18;4.40;93.43
65864;SHT30;52639;51.180;20.460;2023-12-20T08:45:55;4.42;93.67
65864;SHT30;52639;51.180;20.460;2023-12-20T08:50:39;4.40;93.93
65864;SHT30;52639;51.180;20.460;2023-12-20T08:55:22;4.36;94.32
65864;SHT30;52639;51.180;20.460;2023-12-20T08:59:54;4.36;94.29
65864;SHT30;52639;51.180;20.460;2023-12-20T09:08:48;4.23;94.23
65864;SHT30;52639;51.180;20.460;2023-12-20T09:33:18;3.95;95.15
65864;SHT30;52639;51.180;20.460;2023-12-20T09:38:02;3.95;94.66
65864;SHT30;52639;51.180;20.460;2023-12-20T09:47:43;3.98;93.91
65864;SHT30;52639;51.180;20.460;2023-12-20T10:18:19;3.91;93.80
65864;SHT30;52639;51.180;20.460;2023-12-20T10:22:57;3.89;94.37
65864;SHT30;52639;51.180;20.460;2023-12-20T10:27:23;3.94;94.24
65864;SHT30;52639;51.180;20.460;2023-12-20T10:37:35;3.99;93.93
65864;SHT30;52639;51.180;20.460;2023-12-20T10:42:18;4.03;93.69
65864;SHT30;52639;51.180;20.460;2023-12-20T10:46:53;3.94;94.03
65864;SHT30;52639;51.180;20.460;2023-12-20T10:52:16;3.92;94.18
65864;SHT30;52639;51.180;20.460;2023-12-20T11:01:44;3.88;94.25
65864;SHT30;52639;51.180;20.460;2023-12-20T11:06:13;3.94;93.95
65864;SHT30;52639;51.180;20.460;2023-12-20T11:11:01;3.88;93.91
65864;SHT30;52639;51.180;20.460;2023-12-20T11:15:15;3.94;93.96
65864;SHT30;52639;51.180;20.460;2023-12-20T11:19:23;3.89;93.80
65864;SHT30;52639;51.180;20.460;2023-12-20T11:23:27;3.89;94.25
65864;SHT30;52639;51.180;20.460;2023-12-20T11:27:41;3.89;93.88
65864;SHT30;52639;51.180;20.460;2023-12-20T11:32:28;3.85;94.78
65864;SHT30;52639;51.180;20.460;2023-12-20T11:37:17;3.81;94.56
65864;SHT30;52639;51.180;20.460;2023-12-20T11:42:05;3.79;94.53
65864;SHT30;52639;51.180;20.460;2023-12-20T11:46:56;3.78;94.63
65864;SHT30;52639;51.180;20.460;2023-12-20T11:51:47;3.79;94.43
65864;SHT30;52639;51.180;20.460;2023-12-20T12:01:52;3.81;94.72
65864;SHT30;52639;51.180;20.460;2023-12-20T12:10:57;3.92;94.56
65864;SHT30;52639;51.180;20.460;2023-12-20T12:15:16;3.96;94.46
65864;SHT30;52639;51.180;20.460;2023-12-20T12:24:22;3.95;94.45
65864;SHT30;52639;51.180;20.460;2023-12-20T12:28:47;3.95;95.04
65864;SHT30;52639;51.180;20.460;2023-12-20T12:37:43;3.94;95.40
65864;SHT30;52639;51.180;20.460;2023-12-20T12:47:55;4.08;95.27
65864;SHT30;52639;51.180;20.460;2023-12-20T12:52:12;4.12;95.05
65864;SHT30;52639;51.180;20.460;2023-12-20T12:56:43;4.12;94.69
65864;SHT30;52639;51.180;20.460;2023-12-20T13:01:36;4.10;95.07
65864;SHT30;52639;51.180;20.460;2023-12-20T13:11:36;4.06;94.92
65864;SHT30;52639;51.180;20.460;2023-12-20T13:21:06;4.08;94.38
65864;SHT30;52639;51.180;20.460;2023-12-20T13:25:43;4.03;94.86
65864;SHT30;52639;51.180;20.460;2023-12-20T13:36:15;4.01;94.49
65864;SHT30;52639;51.180;20.460;2023-12-20T13:41:21;4.01;94.83
65864;SHT30;52639;51.180;20.460;2023-12-20T13:46:11;4.01;94.73
65864;SHT30;52639;51.180;20.460;2023-12-20T13:55:25;4.03;94.83
65864;SHT30;52639;51.180;20.460;2023-12-20T14:00:00;4.05;95.24
65864;SHT30;52639;51.180;20.460;2023-12-20T14:04:04;3.92;94.52
65864;SHT30;52639;51.180;20.460;2023-12-20T14:08:18;3.77;95.04
65864;SHT30;52639;51.180;20.460;2023-12-20T14:13:03;3.73;94.82
65864;SHT30;52639;51.180;20.460;2023-12-20T14:18:18;3.70;95.14
65864;SHT30;52639;51.180;20.460;2023-12-20T14:23:19;3.65;94.91
65864;SHT30;52639;51.180;20.460;2023-12-20T14:28:26;3.70;95.11
65864;SHT30;52639;51.180;20.460;2023-12-20T14:37:27;3.75;94.45
65864;SHT30;52639;51.180;20.460;2023-12-20T14:41:55;3.73;95.11
65864;SHT30;52639;51.180;20.460;2023-12-20T14:58:35;3.64;95.33
65864;SHT30;52639;51.180;20.460;2023-12-20T15:03:54;3.61;95.19
65864;SHT30;52639;51.180;20.460;2023-12-20T15:12:52;3.54;95.14
65864;SHT30;52639;51.180;20.460;2023-12-20T15:16:58;3.47;95.09
65864;SHT30;52639;51.180;20.460;2023-12-20T15:21:14;3.45;95.09
65864;SHT30;52639;51.180;20.460;2023-12-20T15:26:32;3.37;95.01
65864;SHT30;52639;51.180;20.460;2023-12-20T15:31:33;3.26;95.42
65864;SHT30;52639;51.180;20.460;2023-12-20T15:36:01;3.33;95.41
65864;SHT30;52639;51.180;20.460;2023-12-20T15:41:00;3.34;95.33
65864;SHT30;52639;51.180;20.460;2023-12-20T15:46:03;3.37;95.31
65864;SHT30;52639;51.180;20.460;2023-12-20T15:50:42;3.38;96.09
65864;SHT30;52639;51.180;20.460;2023-12-20T16:06:18;3.43;95.19
65864;SHT30;52639;51.180;20.460;2023-12-20T16:11:31;3.41;95.09
65864;SHT30;52639;51.180;20.460;2023-12-20T16:37:20;3.44;94.99
65864;SHT30;52639;51.180;20.460;2023-12-20T16:42:02;3.47;95.72
65864;SHT30;52639;51.180;20.460;2023-12-20T17:18:51;2.86;94.87
65864;SHT30;52639;51.180;20.460;2023-12-20T17:23:17;2.76;95.47
65864;SHT30;52639;51.180;20.460;2023-12-20T17:28:22;2.90;95.37
65864;SHT30;52639;51.180;20.460;2023-12-20T17:33:10;2.85;95.10
65864;SHT30;52639;51.180;20.460;2023-12-20T17:37:52;2.73;95.02
65864;SHT30;52639;51.180;20.460;2023-12-20T18:56:28;3.24;95.03
65864;SHT30;52639;51.180;20.460;2023-12-20T19:26:36;3.37;94.96
65864;SHT30;52639;51.180;20.460;2023-12-20T19:31:24;3.34;94.82
65864;SHT30;52639;51.180;20.460;2023-12-20T19:40:52;3.35;95.02
65864;SHT30;52639;51.180;20.460;2023-12-20T19:45:39;3.38;95.06
65864;SHT30;52639;51.180;20.460;2023-12-20T19:50:02;3.37;95.20
65864;SHT30;52639;51.180;20.460;2023-12-20T19:54:10;3.31;95.03
65864;SHT30;52639;51.180;20.460;2023-12-20T19:58:16;3.33;95.06
65864;SHT30;52639;51.180;20.460;2023-12-20T20:03:02;3.33;94.95
65864;SHT30;52639;51.180;20.460;2023-12-20T20:07:08;3.27;94.61
65864;SHT30;52639;51.180;20.460;2023-12-20T20:11:17;3.24;95.03
65864;SHT30;52639;51.180;20.460;2023-12-20T20:15:24;3.19;94.96
65864;SHT30;52639;51.180;20.460;2023-12-20T20:19:32;3.14;95.02
65864;SHT30;52639;51.180;20.460;2023-12-20T20:23:39;3.23;95.09
65864;SHT30;52639;51.180;20.460;2023-12-20T20:28:33;3.34;94.67
65864;SHT30;52639;51.180;20.460;2023-12-20T20:57:54;2.71;95.64
65864;SHT30;52639;51.180;20.460;2023-12-20T21:02:24;2.50;95.93
65864;SHT30;52639;51.180;20.460;2023-12-20T21:06:30;2.41;96.17
65864;SHT30;52639;51.180;20.460;2023-12-20T21:10:35;2.50;96.47
65864;SHT30;52639;51.180;20.460;2023-12-20T21:15:18;2.55;96.07
65864;SHT30;52639;51.180;20.460;2023-12-20T21:19:22;2.39;96.00
65864;SHT30;52639;51.180;20.460;2023-12-20T21:23:49;2.42;96.85
65864;SHT30;52639;51.180;20.460;2023-12-20T21:28:08;2.44;95.91
65864;SHT30;52639;51.180;20.460;2023-12-20T21:32:32;2.22;95.63
65864;SHT30;52639;51.180;20.460;2023-12-20T21:36:42;2.05;95.71
65864;SHT30;52639;51.180;20.460;2023-12-20T21:50:45;1.67;95.96
65864;SHT30;52639;51.180;20.460;2023-12-20T21:55:02;1.70;96.00
65864;SHT30;52639;51.180;20.460;2023-12-20T21:59:26;1.70;96.92
65864;SHT30;52639;51.180;20.460;2023-12-20T22:03:50;1.67;96.62
65864;SHT30;52639;51.180;20.460;2023-12-20T22:13:30;1.67;96.79
65864;SHT30;52639;51.180;20.460;2023-12-20T22:18:40;1.49;96.11
65864;SHT30;52639;51.180;20.460;2023-12-20T22:23:40;1.22;95.85
65864;SHT30;52639;51.180;20.460;2023-12-20T22:33:52;1.03;96.98
65864;SHT30;52639;51.180;20.460;2023-12-20T22:38:01;0.92;96.04
65864;SHT30;52639;51.180;20.460;2023-12-20T22:42:39;0.91;96.38
65864;SHT30;52639;51.180;20.460;2023-12-20T22:46:53;0.81;95.74
65864;SHT30;52639;51.180;20.460;2023-12-20T22:50:58;0.73;96.08
65864;SHT30;52639;51.180;20.460;2023-12-20T22:55:00;0.69;96.24
65864;SHT30;52639;51.180;20.460;2023-12-20T22:59:03;0.64;95.99
65864;SHT30;52639;51.180;20.460;2023-12-20T23:03:07;0.86;96.65
65864;SHT30;52639;51.180;20.460;2023-12-20T23:07:14;1.03;96.60
65864;SHT30;52639;51.180;20.460;2023-12-20T23:11:21;1.05;95.83
65864;SHT30;52639;51.180;20.460;2023-12-20T23:15:45;0.99;95.21
65864;SHT30;52639;51.180;20.460;2023-12-20T23:20:27;0.82;95.48
65864;SHT30;52639;51.180;20.460;2023-12-20T23:30:47;0.73;96.18
65864;SHT30;52639;51.180;20.460;2023-12-20T23:35:03;0.83;96.30
65864;SHT30;52639;51.180;20.460;2023-12-20T23:39:13;0.83;95.94
65864;SHT30;52639;51.180;20.460;2023-12-20T23:43:21;0.93;97.00
65864;SHT30;52639;51.180;20.460;2023-12-20T23:47:42;1.20;96.94
65864;SHT30;52639;51.180;20.460;2023-12-20T23:51:45;1.37;96.49
65864;SHT30;52639;51.180;20.460;2023-12-20T23:55:48;1.53;96.28
65864;SHT30;52639;51.180;20.460;2023-12-20T23:59:52;1.56;96.23
